Time;durP1;ratioP1;P1;durP2;ratioP2;P2;SDS_P1;SDS_P2;PMS_P1;PMS_P2;Temp;Humidity;BMP_temperature;BMP_pressure;BME280_temperature;BME280_humidity;BME280_pressure;Samples;Min_cycle;Max_cycle;Signal;HPM_P1;HPM_P2
2023/12/02 00:01:15;;;;;;;4.97;1.10;;;;;;;15.61;44.40;93209.84;5063224;28;20227;-79
2023/12/02 00:03:40;;;;;;;11.35;1.33;;;;;;;15.76;42.73;93200.91;5063538;28;20088;-78
2023/12/02 00:06:06;;;;;;;4.90;1.23;;;;;;;15.87;43.57;93193.00;5063461;28;20235;-79
2023/12/02 00:08:31;;;;;;;5.60;1.00;;;;;;;15.84;41.46;93143.44;5063266;28;20021;-79
2023/12/02 00:10:57;;;;;;;4.55;1.10;;;;;;;15.94;42.21;93222.66;5063195;28;20021;-78
2023/12/02 00:13:23;;;;;;;5.10;1.05;;;;;;;16.07;40.60;93222.47;5063401;28;20223;-78
2023/12/02 00:15:49;;;;;;;7.53;0.90;;;;;;;16.07;40.14;93177.53;5063260;28;20020;-78
2023/12/02 00:18:14;;;;;;;7.10;1.00;;;;;;;16.09;42.46;93150.28;5062869;28;20041;-80
2023/12/02 00:20:40;;;;;;;4.47;1.25;;;;;;;16.00;41.27;93180.13;5063042;28;20310;-80
2023/12/02 00:23:05;;;;;;;4.80;1.13;;;;;;;15.99;41.16;93189.31;5063146;28;20067;-80
2023/12/02 00:25:31;;;;;;;6.78;1.98;;;;;;;15.98;43.62;93214.66;5062908;28;20084;-79
2023/12/02 00:27:56;;;;;;;8.80;1.35;;;;;;;15.83;44.16;93181.41;5062845;28;20066;-78
2023/12/02 00:30:22;;;;;;;4.15;0.95;;;;;;;15.89;41.04;93136.97;5062909;28;20044;-79
2023/12/02 00:32:47;;;;;;;9.38;1.30;;;;;;;15.91;42.69;93183.06;5062666;28;20021;-78
2023/12/02 00:35:13;;;;;;;6.20;1.65;;;;;;;15.84;43.05;93143.44;5063186;28;20092;-78
2023/12/02 00:37:38;;;;;;;13.23;2.55;;;;;;;15.79;43.41;93178.69;5062988;28;20040;-78
2023/12/02 00:40:05;;;;;;;5.78;1.58;;;;;;;15.76;44.16;93181.34;5063040;28;20238;-79
2023/12/02 00:42:31;;;;;;;7.93;1.05;;;;;;;15.78;40.38;93169.06;5062828;28;20083;-78
2023/12/02 00:44:56;;;;;;;6.07;1.10;;;;;;;15.84;43.54;93156.88;5062841;28;20025;-78
2023/12/02 00:47:21;;;;;;;3.80;1.52;;;;;;;15.69;45.16;93187.31;5062936;28;20017;-78
2023/12/02 00:49:47;;;;;;;7.90;1.70;;;;;;;15.50;45.87;93195.47;5063107;28;20013;-78
2023/12/02 00:52:12;;;;;;;5.15;2.20;;;;;;;15.39;46.78;93138.94;5062643;28;20025;-79
2023/12/02 00:54:38;;;;;;;6.63;1.70;;;;;;;15.19;46.72;93208.03;5061452;28;20100;-78
2023/12/02 00:57:04;;;;;;;6.05;1.63;;;;;;;14.98;46.49;93192.31;5062279;28;20040;-78
2023/12/02 00:59:29;;;;;;;8.35;2.05;;;;;;;14.93;46.68;93137.03;5062427;28;20029;-78
2023/12/02 01:01:54;;;;;;;4.93;1.30;;;;;;;14.76;46.99;93208.03;5066260;28;20204;-78
2023/12/02 01:04:20;;;;;;;5.25;1.88;;;;;;;14.69;46.91;93204.44;5066652;28;20055;-78
2023/12/02 01:06:45;;;;;;;6.00;1.42;;;;;;;14.66;46.34;93111.28;5066681;28;20032;-78
2023/12/02 01:09:11;;;;;;;3.80;1.05;;;;;;;14.72;39.35;93125.94;5066447;28;20013;-79
2023/12/02 01:11:37;;;;;;;6.47;1.27;;;;;;;14.94;42.87;93162.75;5066716;28;20024;-79
2023/12/02 01:14:02;;;;;;;6.72;1.42;;;;;;;15.05;42.92;93158.31;5066513;28;20319;-79
2023/12/02 01:16:27;;;;;;;4.25;1.55;;;;;;;15.15;44.69;93177.66;5066333;28;20016;-78
2023/12/02 01:18:53;;;;;;;5.78;1.58;;;;;;;15.18;45.29;93193.03;5066495;28;20043;-80
2023/12/02 01:21:18;;;;;;;8.23;1.85;;;;;;;15.18;44.01;93163.50;5066705;28;20027;-79
2023/12/02 01:23:44;;;;;;;6.65;1.50;;;;;;;15.19;45.10;93181.19;5066356;28;20200;-79
2023/12/02 01:26:09;;;;;;;5.75;1.27;;;;;;;15.08;45.97;93153.38;5065102;28;20048;-78
2023/12/02 01:28:35;;;;;;;6.82;1.20;;;;;;;15.02;45.82;93166.31;5066154;28;20012;-78
2023/12/02 01:31:00;;;;;;;9.27;1.60;;;;;;;14.89;46.39;93097.88;5065854;28;20164;-79
2023/12/02 01:33:25;;;;;;;4.70;1.50;;;;;;;14.90;46.41;93126.25;5066005;28;20025;-78
2023/12/02 01:35:51;;;;;;;7.15;1.70;;;;;;;14.80;47.40;93175.91;5065851;28;20017;-78
2023/12/02 01:38:16;;;;;;;4.43;0.95;;;;;;;14.67;45.66;93102.09;5066302;28;20020;-79
2023/12/02 01:40:42;;;;;;;5.45;1.17;;;;;;;14.79;43.50;93093.88;5065950;28;20106;-79
2023/12/02 01:43:28;;;;;;;4.80;0.70;;;;;;;14.94;41.82;93124.38;5065948;28;20096;-78
2023/12/02 01:45:55;;;;;;;7.53;1.73;;;;;;;15.13;44.14;93171.88;5066009;28;20234;-79
2023/12/02 01:48:23;;;;;;;2.95;1.05;;;;;;;15.12;44.34;93149.63;5065825;28;20096;-78
2023/12/02 01:50:49;;;;;;;6.65;1.35;;;;;;;15.11;45.25;93123.91;5065740;28;20029;-79
2023/12/02 01:53:15;;;;;;;10.65;1.50;;;;;;;15.05;46.45;93126.13;5065315;28;20048;-79
2023/12/02 01:55:40;;;;;;;7.88;2.15;;;;;;;15.04;46.77;93097.75;5065562;28;20033;-79
2023/12/02 01:58:06;;;;;;;3.85;1.42;;;;;;;14.93;47.84;93166.56;5065824;28;22019;-79
2023/12/02 02:00:31;;;;;;;6.95;2.13;;;;;;;14.79;48.70;93142.16;5065748;28;20425;-79
2023/12/02 02:02:57;;;;;;;10.02;1.63;;;;;;;14.66;48.56;93127.38;5065749;28;20319;-79
2023/12/02 02:05:22;;;;;;;6.30;1.25;;;;;;;14.51;48.64;93150.44;5065638;28;20020;-78
2023/12/02 02:07:48;;;;;;;8.45;1.40;;;;;;;14.40;49.23;93091.25;5065902;28;20031;-79
2023/12/02 02:10:13;;;;;;;5.95;1.15;;;;;;;14.28;50.05;93120.91;5064797;28;20323;-78
2023/12/02 02:12:39;;;;;;;8.15;1.73;;;;;;;14.27;50.59;93148.81;5064517;28;20067;-79
2023/12/02 02:15:05;;;;;;;4.75;1.55;;;;;;;14.23;51.32;93095.94;5065166;28;20044;-79
2023/12/02 02:17:30;;;;;;;5.60;1.70;;;;;;;14.20;52.50;93117.28;5065513;28;20032;-78
2023/12/02 02:19:55;;;;;;;3.97;1.45;;;;;;;14.03;52.81;93064.91;5065298;28;20215;-79
2023/12/02 02:22:21;;;;;;;5.20;1.35;;;;;;;13.92;53.12;93096.88;5065334;28;20017;-78
2023/12/02 02:24:46;;;;;;;4.93;1.52;;;;;;;13.82;51.76;93094.75;5064993;28;20040;-78
2023/12/02 02:27:12;;;;;;;8.98;2.00;;;;;;;13.82;52.66;93081.34;5064954;28;20056;-79
2023/12/02 02:29:37;;;;;;;10.10;1.83;;;;;;;13.73;52.79;93068.16;5064858;28;20033;-79
2023/12/02 02:32:03;;;;;;;6.07;1.38;;;;;;;13.66;52.68;93100.16;5065077;28;20025;-79
2023/12/02 02:34:28;;;;;;;3.45;1.63;;;;;;;13.63;52.61;93108.88;5064886;28;20059;-78
2023/12/02 02:36:54;;;;;;;7.45;1.90;;;;;;;13.58;53.95;93125.22;5064448;28;20033;-79
2023/12/02 02:39:20;;;;;;;7.10;1.75;;;;;;;13.51;55.08;93098.28;5064780;28;20025;-78
2023/12/02 02:41:45;;;;;;;6.97;1.77;;;;;;;13.48;54.00;93072.22;5064724;28;20056;-79
2023/12/02 02:44:11;;;;;;;4.32;1.30;;;;;;;13.43;53.38;93082.09;5064677;28;20071;-79
2023/12/02 02:46:36;;;;;;;11.00;1.77;;;;;;;13.44;54.01;93088.97;5064230;28;20324;-79
2023/12/02 02:49:03;;;;;;;14.05;1.65;;;;;;;13.41;54.41;93076.31;5064407;28;20104;-80
2023/12/02 02:51:28;;;;;;;8.40;1.27;;;;;;;13.37;52.85;93072.78;5064334;28;20029;-79
2023/12/02 02:53:54;;;;;;;5.57;1.15;;;;;;;13.47;51.96;93100.09;5064294;28;20092;-79
2023/12/02 02:56:20;;;;;;;5.35;1.45;;;;;;;13.48;52.50;93090.97;5064072;28;20053;-78
2023/12/02 02:58:46;;;;;;;5.15;1.15;;;;;;;13.46;52.80;93091.31;5064021;28;20100;-79
2023/12/02 03:01:12;;;;;;;6.50;1.70;;;;;;;13.47;52.96;93098.19;5064061;28;20055;-78
2023/12/02 03:03:39;;;;;;;7.55;1.70;;;;;;;13.41;53.64;93111.09;5063993;28;20342;-79
2023/12/02 03:06:05;;;;;;;3.80;1.40;;;;;;;13.41;54.15;93094.25;5063968;28;20118;-78
2023/12/02 03:08:31;;;;;;;10.27;1.90;;;;;;;13.38;53.78;93093.03;5063877;28;20020;-78
2023/12/02 03:10:56;;;;;;;9.00;1.63;;;;;;;13.31;53.58;93066.13;5063824;28;20212;-78
2023/12/02 03:13:21;;;;;;;4.68;1.60;;;;;;;13.31;54.18;93100.13;5064075;28;20075;-78
2023/12/02 03:15:47;;;;;;;7.78;1.55;;;;;;;13.27;54.45;93093.91;5063743;28;20052;-79
2023/12/02 03:18:13;;;;;;;6.65;1.63;;;;;;;13.24;55.20;93057.91;5062372;28;20033;-78
2023/12/02 03:20:39;;;;;;;11.02;1.55;;;;;;;13.19;52.80;93080.38;5063759;28;20031;-77
2023/12/02 03:23:05;;;;;;;6.03;1.65;;;;;;;13.20;53.43;93099.88;5063415;28;20054;-79
2023/12/02 03:25:30;;;;;;;7.63;1.35;;;;;;;13.20;54.61;93073.13;5063610;28;20069;-79
2023/12/02 03:27:56;;;;;;;5.25;1.40;;;;;;;13.14;55.44;93067.25;5063564;28;20096;-79
2023/12/02 03:30:22;;;;;;;5.80;1.50;;;;;;;13.09;55.74;93130.94;5063865;28;20227;-78
2023/12/02 03:32:47;;;;;;;6.30;1.88;;;;;;;13.03;56.04;93069.69;5062416;28;20250;-78
2023/12/02 03:35:13;;;;;;;9.90;1.95;;;;;;;12.95;56.20;93097.38;5063512;28;20075;-78
2023/12/02 03:37:39;;;;;;;8.43;1.70;;;;;;;12.83;55.96;93074.19;5063415;28;20040;-78
2023/12/02 03:40:08;;;;;;;10.20;2.03;;;;;;;12.85;56.20;93057.78;5063484;28;20244;-78
2023/12/02 03:42:34;;;;;;;9.98;1.80;;;;;;;12.83;57.09;93118.88;5063300;28;20083;-79
2023/12/02 03:45:00;;;;;;;11.60;1.65;;;;;;;12.82;56.74;93095.91;5063333;28;20029;-79
2023/12/02 03:47:25;;;;;;;7.00;2.10;;;;;;;12.80;57.43;93119.53;5063035;28;20025;-79
2023/12/02 03:49:51;;;;;;;8.82;1.30;;;;;;;12.75;57.73;93150.00;5063482;28;20044;-79
2023/12/02 03:52:16;;;;;;;7.82;1.63;;;;;;;12.73;57.91;93114.81;5063198;28;20023;-79
2023/12/02 03:54:41;;;;;;;6.47;2.08;;;;;;;12.76;58.10;93102.63;5063065;28;20412;-79
2023/12/02 03:57:07;;;;;;;5.70;1.92;;;;;;;12.71;58.23;93111.69;5062834;28;20125;-79
2023/12/02 03:59:32;;;;;;;13.20;1.83;;;;;;;12.70;58.22;93125.41;5063005;28;20090;-78
2023/12/02 04:01:59;;;;;;;6.63;1.60;;;;;;;12.62;57.78;93124.47;5062938;28;20120;-79
2023/12/02 04:04:24;;;;;;;12.05;1.90;;;;;;;12.65;57.59;93118.44;5062875;28;20033;-78
2023/12/02 04:06:50;;;;;;;9.13;1.88;;;;;;;12.67;58.10;93086.00;5062854;28;20021;-76
2023/12/02 04:09:18;;;;;;;6.38;1.50;;;;;;;12.70;58.07;93082.63;5062721;28;20025;-79
2023/12/02 04:11:48;;;;;;;8.52;1.27;;;;;;;12.70;57.75;93085.31;5061789;28;20029;-79
2023/12/02 04:14:13;;;;;;;6.82;1.50;;;;;;;12.69;57.90;93059.69;5061661;28;20215;-79
2023/12/02 04:16:40;;;;;;;4.10;1.20;;;;;;;12.70;58.32;93087.97;5062695;28;20024;-79
2023/12/02 04:19:07;;;;;;;9.65;1.90;;;;;;;12.68;58.42;93015.34;5062838;28;20021;-78
2023/12/02 04:21:34;;;;;;;4.90;1.58;;;;;;;12.67;58.21;93078.00;5062642;28;20035;-79
2023/12/02 04:23:59;;;;;;;9.90;1.85;;;;;;;12.65;58.03;93020.28;5061475;28;20071;-78
2023/12/02 04:26:25;;;;;;;8.40;1.40;;;;;;;12.65;57.88;93060.38;5062561;28;20311;-77
2023/12/02 04:28:50;;;;;;;12.73;1.70;;;;;;;12.68;58.04;93066.16;5062695;28;20017;-78
2023/12/02 04:31:16;;;;;;;12.38;2.42;;;;;;;12.68;58.10;93034.88;5061885;28;20021;-78
2023/12/02 04:33:42;;;;;;;10.88;1.60;;;;;;;12.71;58.05;93041.41;5062544;28;20029;-78
2023/12/02 04:36:09;;;;;;;8.90;1.52;;;;;;;12.74;57.36;93036.16;5062741;28;20035;-79
2023/12/02 04:38:34;;;;;;;7.35;1.30;;;;;;;12.72;57.57;93032.25;5061578;28;20024;-79
2023/12/02 04:41:00;;;;;;;8.77;1.30;;;;;;;12.72;57.67;93011.66;5062952;28;20342;-78
2023/12/02 04:43:25;;;;;;;4.50;1.27;;;;;;;12.71;57.53;93025.38;5063247;28;20032;-79
2023/12/02 04:45:51;;;;;;;5.93;1.65;;;;;;;12.70;57.41;93007.78;5063163;28;20323;-78
2023/12/02 04:48:17;;;;;;;7.75;2.05;;;;;;;12.74;57.23;93016.66;5062761;28;20017;-78
2023/12/02 04:50:42;;;;;;;9.43;2.05;;;;;;;12.76;57.22;93001.84;5062908;28;20040;-79
2023/12/02 04:53:09;;;;;;;9.10;3.15;;;;;;;12.78;57.13;93053.06;5062848;28;20194;-79
2023/12/02 04:55:35;;;;;;;4.60;1.40;;;;;;;12.72;57.27;93038.41;5062468;28;20092;-79
2023/12/02 04:58:01;;;;;;;9.18;1.55;;;;;;;12.74;57.38;93006.75;5062460;28;20021;-79
2023/12/02 05:00:27;;;;;;;7.63;1.45;;;;;;;12.77;57.37;93046.16;5061556;28;20103;-79
2023/12/02 05:02:53;;;;;;;9.60;1.88;;;;;;;12.75;56.23;93018.97;5062893;28;20075;-79
2023/12/02 05:05:19;;;;;;;7.57;1.88;;;;;;;12.79;56.61;93053.84;5062791;28;20033;-79
2023/12/02 05:07:45;;;;;;;4.10;2.20;;;;;;;12.80;56.18;93024.09;5062645;28;20286;-80
2023/12/02 05:10:11;;;;;;;9.88;2.20;;;;;;;12.82;55.14;93013.00;5062615;28;20056;-79
2023/12/02 05:12:37;;;;;;;8.18;1.70;;;;;;;12.82;55.07;93015.69;5062733;28;20323;-79
2023/12/02 05:15:04;;;;;;;9.70;1.65;;;;;;;12.85;53.30;93023.81;5062863;28;20074;-79
2023/12/02 05:17:29;;;;;;;12.55;2.00;;;;;;;12.88;54.79;93072.38;5061510;28;20020;-79
2023/12/02 05:19:57;;;;;;;7.78;1.90;;;;;;;12.86;54.72;92979.09;5062473;28;20070;-80
2023/12/02 05:22:22;;;;;;;3.20;1.50;;;;;;;12.87;54.45;93020.78;5061546;28;20028;-79
2023/12/02 05:24:48;;;;;;;9.68;1.98;;;;;;;12.84;54.74;93024.94;5062795;28;20028;-80
2023/12/02 05:27:14;;;;;;;6.00;2.28;;;;;;;12.80;54.99;93026.75;5062698;28;20020;-79
2023/12/02 05:29:39;;;;;;;11.77;2.25;;;;;;;12.77;55.05;93008.72;5062569;28;20036;-79
2023/12/02 05:32:05;;;;;;;13.15;2.20;;;;;;;12.80;54.84;93005.38;5061559;28;20036;-79
2023/12/02 05:34:33;;;;;;;14.85;4.45;;;;;;;12.78;55.39;93009.47;5062572;28;20208;-78
2023/12/02 05:36:58;;;;;;;13.18;5.40;;;;;;;12.78;55.38;93033.56;5062319;28;20025;-77
2023/12/02 05:39:24;;;;;;;16.80;5.25;;;;;;;12.72;54.72;93027.72;5061983;28;20032;-77
2023/12/02 05:41:49;;;;;;;11.13;3.28;;;;;;;12.71;53.92;93025.38;5062252;28;20032;-77
2023/12/02 05:44:15;;;;;;;9.18;2.80;;;;;;;12.68;54.15;93026.06;5062018;28;20080;-78
2023/12/02 05:46:40;;;;;;;10.48;4.05;;;;;;;12.71;54.43;93009.34;5065016;28;20184;-78
2023/12/02 05:49:05;;;;;;;7.88;3.15;;;;;;;12.72;54.65;92997.50;5065740;28;20017;-79
2023/12/02 05:51:31;;;;;;;8.00;2.83;;;;;;;12.71;55.92;93030.72;5065594;28;20021;-78
2023/12/02 05:53:56;;;;;;;11.20;3.83;;;;;;;12.68;56.73;92967.25;5065396;28;20219;-78
2023/12/02 05:56:22;;;;;;;13.80;3.03;;;;;;;12.62;56.70;93006.84;5065689;28;20045;-78
2023/12/02 05:58:48;;;;;;;10.80;2.50;;;;;;;12.56;56.38;93009.00;5065511;28;20025;-78
2023/12/02 06:01:22;;;;;;;6.85;2.75;;;;;;;12.64;56.44;92972.53;5065257;28;20020;-76
2023/12/02 06:03:48;;;;;;;5.35;1.95;;;;;;;12.67;57.16;93016.50;5065592;28;20284;-77
2023/12/02 06:06:14;;;;;;;11.52;1.70;;;;;;;12.70;56.25;92975.69;5065326;28;20020;-78
2023/12/02 06:08:40;;;;;;;10.77;1.85;;;;;;;12.73;56.37;92983.78;5065142;28;20024;-78
2023/12/02 06:11:06;;;;;;;12.65;2.60;;;;;;;12.79;56.62;93011.81;5065278;28;20047;-78
2023/12/02 06:13:31;;;;;;;8.02;2.53;;;;;;;12.83;56.59;93020.69;5065235;28;20020;-78
2023/12/02 06:15:57;;;;;;;6.13;1.90;;;;;;;12.87;56.62;93049.44;5065094;28;20193;-77
2023/12/02 06:18:22;;;;;;;5.78;2.08;;;;;;;12.91;56.76;93035.00;5064853;28;20025;-77
2023/12/02 06:20:48;;;;;;;8.35;2.53;;;;;;;12.94;56.75;93039.66;5065164;28;20254;-77
2023/12/02 06:23:13;;;;;;;9.98;3.05;;;;;;;12.97;57.09;93049.69;5065073;28;20040;-78
2023/12/02 06:25:39;;;;;;;6.78;2.17;;;;;;;12.97;57.27;93032.84;5065068;28;20028;-78
2023/12/02 06:28:05;;;;;;;5.47;2.20;;;;;;;12.96;57.35;93058.81;5065084;28;20104;-77
2023/12/02 06:30:31;;;;;;;7.55;2.28;;;;;;;12.90;57.49;93004.03;5064756;28;20024;-78
2023/12/02 06:32:56;;;;;;;8.50;2.67;;;;;;;12.89;57.68;93034.59;5064541;28;20088;-77
2023/12/02 06:35:22;;;;;;;11.35;2.90;;;;;;;12.82;57.76;93079.88;5064945;28;20262;-78
2023/12/02 06:37:48;;;;;;;9.60;2.03;;;;;;;12.76;58.23;93059.84;5064809;28;20048;-77
2023/12/02 06:40:13;;;;;;;9.98;2.58;;;;;;;12.77;57.97;93067.53;5064500;28;20051;-79
2023/12/02 06:42:39;;;;;;;9.45;2.15;;;;;;;12.69;58.16;93054.34;5064698;28;20025;-80
2023/12/02 06:45:05;;;;;;;6.43;2.20;;;;;;;12.69;58.35;93068.50;5064796;28;20075;-79
2023/12/02 06:47:31;;;;;;;8.77;2.50;;;;;;;12.64;58.05;93061.50;5065244;28;20108;-79
2023/12/02 06:49:56;;;;;;;11.63;2.70;;;;;;;12.71;57.88;93068.16;5064953;28;20021;-79
2023/12/02 06:52:22;;;;;;;13.13;3.35;;;;;;;12.66;57.74;93045.13;5064935;28;20029;-78
2023/12/02 06:54:47;;;;;;;8.50;3.55;;;;;;;12.67;57.82;93080.66;5064822;28;20035;-79
2023/12/02 06:57:13;;;;;;;9.40;3.13;;;;;;;12.69;57.83;93076.50;5063747;28;20045;-78
2023/12/02 06:59:38;;;;;;;11.95;2.47;;;;;;;12.69;59.29;93095.22;5064687;28;20102;-81
2023/12/02 07:02:04;;;;;;;8.02;2.10;;;;;;;12.79;58.58;93035.13;5064448;28;20035;-80
2023/12/02 07:04:29;;;;;;;8.75;1.92;;;;;;;12.81;58.02;93062.28;5064589;28;20201;-81
2023/12/02 07:06:55;;;;;;;7.43;1.45;;;;;;;13.00;52.89;93065.00;5064256;28;20058;-81
2023/12/02 07:09:20;;;;;;;9.73;2.80;;;;;;;13.19;56.95;93034.13;5064358;28;20131;-81
2023/12/02 07:11:46;;;;;;;9.90;2.97;;;;;;;13.25;56.86;93060.25;5064250;28;20228;-81
2023/12/02 07:14:11;;;;;;;8.85;3.28;;;;;;;13.32;55.55;93070.34;5063866;28;20033;-81
2023/12/02 07:16:37;;;;;;;7.28;2.70;;;;;;;13.30;56.69;93021.75;5064126;28;20032;-84
2023/12/02 07:19:02;;;;;;;8.75;2.22;;;;;;;13.37;53.77;93063.94;5063741;28;20284;-80
2023/12/02 07:21:27;;;;;;;8.07;2.42;;;;;;;13.46;53.95;93071.81;5064170;28;20244;-81
2023/12/02 07:23:53;;;;;;;10.02;2.53;;;;;;;13.53;54.55;93053.97;5064171;28;20083;-81
2023/12/02 07:26:18;;;;;;;7.10;1.90;;;;;;;13.57;53.80;93067.44;5064352;28;20033;-81
2023/12/02 07:28:44;;;;;;;5.18;1.70;;;;;;;13.64;53.62;93060.34;5064014;28;20024;-81
2023/12/02 07:31:16;;;;;;;9.25;1.80;;;;;;;13.59;54.25;93060.59;5064065;28;20082;-80
2023/12/02 07:33:43;;;;;;;5.78;2.60;;;;;;;13.63;53.41;93052.63;5063688;28;20051;-81
2023/12/02 07:36:09;;;;;;;5.72;1.55;;;;;;;13.67;53.31;93068.78;5063947;28;20025;-79
2023/12/02 07:38:35;;;;;;;11.43;4.00;;;;;;;13.70;53.21;93070.75;5063627;28;20040;-80
2023/12/02 07:41:00;;;;;;;16.30;3.58;;;;;;;13.71;53.19;93088.38;5063805;28;20029;-80
2023/12/02 07:43:26;;;;;;;9.77;4.60;;;;;;;13.67;54.25;93085.63;5063662;28;20067;-77
2023/12/02 07:45:51;;;;;;;12.60;2.90;;;;;;;13.67;54.23;93044.69;5063829;28;20029;-76
2023/12/02 07:48:17;;;;;;;5.28;2.17;;;;;;;13.61;54.65;93030.78;5064111;28;20338;-84
2023/12/02 07:50:43;;;;;;;9.68;2.28;;;;;;;13.58;53.96;93072.44;5063887;28;20032;-81
2023/12/02 07:53:08;;;;;;;6.38;2.17;;;;;;;13.55;54.70;93029.53;5063857;28;20090;-78
2023/12/02 07:55:34;;;;;;;8.13;2.10;;;;;;;13.57;54.99;93041.44;5061995;28;20044;-76
2023/12/02 07:58:00;;;;;;;8.85;2.58;;;;;;;13.54;54.54;93039.47;5063494;28;20159;-78
2023/12/02 08:00:26;;;;;;;6.75;2.17;;;;;;;13.56;54.86;93057.88;5063121;28;20024;-81
2023/12/02 08:02:51;;;;;;;9.75;2.00;;;;;;;13.56;54.77;93058.63;5063065;28;20315;-78
2023/12/02 08:05:17;;;;;;;5.63;1.52;;;;;;;13.59;54.31;93049.88;5063184;28;20040;-78
2023/12/02 08:07:42;;;;;;;12.45;2.15;;;;;;;13.62;53.50;93043.84;5063151;28;20107;-78
2023/12/02 08:10:09;;;;;;;16.08;3.08;;;;;;;13.61;53.12;93044.19;5063066;28;20020;-83
2023/12/02 08:12:35;;;;;;;6.22;2.45;;;;;;;13.58;53.72;93044.91;5063981;28;20028;-84
2023/12/02 08:15:01;;;;;;;5.88;2.20;;;;;;;13.57;53.63;93049.47;5064007;28;20131;-85
2023/12/02 08:17:27;;;;;;;12.68;3.28;;;;;;;13.58;54.48;93039.56;5063852;28;20043;-85
2023/12/02 08:19:52;;;;;;;8.90;2.00;;;;;;;13.58;54.00;93029.59;5063028;28;20025;-87
2023/12/02 08:22:21;;;;;;;9.07;3.08;;;;;;;13.61;54.27;93010.16;5063577;28;20062;-82
2023/12/02 08:24:46;;;;;;;9.18;2.55;;;;;;;13.46;53.87;93018.25;5063185;28;20327;-80
2023/12/02 08:27:12;;;;;;;7.28;1.95;;;;;;;13.46;52.74;93021.72;5063389;28;20107;-81
2023/12/02 08:29:37;;;;;;;8.30;2.00;;;;;;;13.42;52.14;93002.88;5062943;28;20021;-80
2023/12/02 08:32:03;;;;;;;8.38;2.20;;;;;;;13.47;52.20;93028.59;5063041;28;20266;-80
2023/12/02 08:34:30;;;;;;;6.63;2.53;;;;;;;13.47;51.29;93015.22;5061799;28;20261;-81
2023/12/02 08:36:55;;;;;;;10.05;2.25;;;;;;;13.56;51.25;92982.91;5063296;28;20036;-81
2023/12/02 08:39:21;;;;;;;8.85;3.10;;;;;;;13.61;50.18;93004.78;5063120;28;20025;-81
2023/12/02 08:41:46;;;;;;;12.35;3.38;;;;;;;13.71;50.63;93013.41;5063052;28;20020;-81
2023/12/02 08:44:12;;;;;;;15.15;2.55;;;;;;;13.75;49.29;92996.28;5063022;28;20103;-80
2023/12/02 08:46:37;;;;;;;9.30;3.15;;;;;;;13.78;49.87;93017.00;5062460;28;20028;-79
2023/12/02 08:49:03;;;;;;;10.60;2.78;;;;;;;13.76;49.81;93029.97;5062636;28;20017;-80
2023/12/02 08:51:28;;;;;;;11.45;3.45;;;;;;;13.71;49.73;93022.19;5062705;28;20180;-79
2023/12/02 08:54:01;;;;;;;8.80;2.67;;;;;;;13.75;50.29;92996.28;5062443;28;20074;-80
2023/12/02 08:56:27;;;;;;;6.22;3.17;;;;;;;13.78;50.20;93037.63;5062802;28;20044;-81
2023/12/02 08:58:54;;;;;;;16.08;3.85;;;;;;;13.76;50.14;93035.31;5062792;28;20044;-80
2023/12/02 09:01:19;;;;;;;16.08;3.72;;;;;;;13.78;50.52;93011.66;5062978;28;20051;-81
2023/12/02 09:03:45;;;;;;;12.18;2.83;;;;;;;13.75;51.47;93039.13;5061711;28;20025;-79
2023/12/02 09:06:10;;;;;;;12.07;2.75;;;;;;;13.79;51.24;93004.38;5062634;28;20032;-79
2023/12/02 09:08:36;;;;;;;14.57;3.47;;;;;;;13.81;51.29;93026.22;5062614;28;20028;-79
2023/12/02 09:11:02;;;;;;;17.10;3.47;;;;;;;13.80;51.06;93025.47;5062779;28;20087;-80
2023/12/02 09:13:40;;;;;;;9.73;2.20;;;;;;;13.91;48.81;93008.81;5062661;28;20025;-78
2023/12/02 09:16:12;;;;;;;15.50;3.42;;;;;;;14.05;49.64;93027.84;5062653;28;20025;-79
2023/12/02 09:18:38;;;;;;;8.52;2.75;;;;;;;14.12;49.84;93051.28;5062873;28;20025;-81
2023/12/02 09:21:19;;;;;;;11.38;2.40;;;;;;;14.23;48.95;93020.88;5064463;28;20306;-81
2023/12/02 09:23:45;;;;;;;9.93;1.95;;;;;;;14.33;49.58;93018.75;5066729;28;20066;-79
2023/12/02 09:26:28;;;;;;;7.90;1.95;;;;;;;14.47;46.22;92978.78;5066803;28;20131;-81
2023/12/02 09:28:54;;;;;;;7.05;1.80;;;;;;;14.62;42.29;92985.94;5066406;28;20232;-80
2023/12/02 09:31:20;;;;;;;10.65;2.80;;;;;;;14.88;46.15;93010.47;5065450;28;20084;-80
2023/12/02 09:33:48;;;;;;;15.73;2.60;;;;;;;15.02;45.57;92998.03;5066340;28;20056;-80
2023/12/02 09:36:42;;;;;;;9.77;1.35;;;;;;;15.20;37.84;92976.84;5065990;28;20452;-78
2023/12/02 09:39:17;;;;;;;9.70;2.17;;;;;;;15.46;42.13;92996.72;5061410;28;20033;-81
2023/12/02 09:41:51;;;;;;;14.73;3.80;;;;;;;15.65;41.82;92985.81;5065833;28;20079;-77
2023/12/02 09:44:23;;;;;;;6.65;1.63;;;;;;;15.80;37.36;92986.78;5065816;28;20048;-76
2023/12/02 09:46:55;;;;;;;9.00;2.25;;;;;;;16.04;38.73;92968.63;5064909;28;20037;-78
2023/12/02 09:49:29;;;;;;;;;;;;;;;16.31;32.51;92971.19;5066340;28;20028;-76
2023/12/02 09:52:14;;;;;;;7.47;0.88;;;;;;;16.61;32.04;92969.13;5065800;28;19932;-76
2023/12/02 09:54:53;;;;;;;12.82;1.38;;;;;;;17.00;31.08;93000.19;5066083;28;20029;-78
2023/12/02 09:57:38;;;;;;;7.47;1.15;;;;;;;17.20;31.20;92947.63;5065522;28;20246;-73
2023/12/02 10:00:15;;;;;;;7.63;2.13;;;;;;;17.27;36.30;92983.81;5065174;28;20234;-78
2023/12/02 10:03:13;;;;;;;14.95;2.50;;;;;;;17.15;30.81;92966.06;5065314;28;20029;-78
2023/12/02 10:06:07;;;;;;;7.38;0.85;;;;;;;17.43;28.18;92971.59;5065224;28;20216;-83
2023/12/02 10:09:01;;;;;;;7.28;0.88;;;;;;;17.75;27.58;92959.44;5056923;28;20050;-80
2023/12/02 10:12:02;;;;;;;5.70;1.02;;;;;;;17.91;28.28;92942.94;5065327;28;20250;-77
2023/12/02 10:14:30;;;;;;;9.32;1.27;;;;;;;18.03;27.99;92950.66;5054385;28;20055;-77
2023/12/02 10:16:58;;;;;;;11.65;1.48;;;;;;;18.10;27.97;92958.00;5065894;28;20025;-82
2023/12/02 10:19:39;;;;;;;15.10;1.40;;;;;;;18.14;28.11;92929.88;5065312;28;20092;-80
2023/12/02 10:22:06;;;;;;;6.03;0.98;;;;;;;18.08;27.95;92944.91;5065280;28;20035;-79
2023/12/02 10:25:07;;;;;;;10.38;1.63;;;;;;;18.02;28.50;92930.25;5065342;28;20025;-81
2023/12/02 10:27:38;;;;;;;9.35;1.30;;;;;;;18.03;28.07;92918.31;5064318;28;20124;-83
2023/12/02 10:30:15;;;;;;;13.23;1.88;;;;;;;18.04;27.57;92920.63;5065275;28;20040;-81
2023/12/02 10:32:47;;;;;;;5.85;1.20;;;;;;;18.11;27.45;92911.75;5063854;28;20031;-78
2023/12/02 10:35:23;;;;;;;9.05;2.10;;;;;;;18.07;29.80;92902.13;5065118;28;20223;-76
2023/12/02 10:37:59;;;;;;;9.80;1.55;;;;;;;18.08;31.05;92892.91;5065570;28;20033;-81
2023/12/02 10:40:26;;;;;;;12.70;1.85;;;;;;;18.10;29.65;92899.44;5064836;28;20025;-81
2023/12/02 10:42:56;;;;;;;7.47;0.90;;;;;;;18.08;26.10;92934.13;5065502;28;20025;-83
2023/12/02 10:45:25;;;;;;;6.40;1.40;;;;;;;18.07;26.47;92894.81;5065401;28;20025;-82
2023/12/02 10:47:52;;;;;;;6.72;1.38;;;;;;;18.10;27.43;92896.75;5065533;28;20020;-82
2023/12/02 10:50:19;;;;;;;6.47;1.13;;;;;;;18.03;27.62;92892.13;5064914;28;20016;-82
2023/12/02 10:53:00;;;;;;;6.88;2.00;;;;;;;18.08;27.58;92896.38;5064492;28;20036;-82
2023/12/02 10:55:27;;;;;;;7.25;1.80;;;;;;;18.05;27.52;92891.72;5064465;28;20029;-83
2023/12/02 10:57:54;;;;;;;8.20;1.25;;;;;;;18.06;28.03;92887.91;5064938;28;20045;-82
2023/12/02 11:00:23;;;;;;;5.45;1.30;;;;;;;18.04;28.43;92876.72;5065226;28;20064;-82
2023/12/02 11:03:06;;;;;;;5.75;2.17;;;;;;;18.06;28.67;92904.06;5065017;28;20028;-82
2023/12/02 11:05:47;;;;;;;3.83;1.52;;;;;;;17.96;29.42;92891.34;5064494;28;20215;-82
2023/12/02 11:08:21;;;;;;;16.45;2.05;;;;;;;17.94;28.94;92899.03;5062401;28;20016;-83
2023/12/02 11:10:51;;;;;;;8.63;1.67;;;;;;;17.90;29.18;92907.13;5064254;28;20029;-83
2023/12/02 11:13:23;;;;;;;8.35;1.33;;;;;;;18.00;27.98;92878.66;5064177;28;20043;-83
2023/12/02 11:15:49;;;;;;;;;;;;;;;18.02;28.02;92890.56;5064739;28;20040;-82
2023/12/02 11:18:33;;;;;;;7.88;1.55;;;;;;;17.92;27.61;92858.22;5062990;28;19966;-82
2023/12/02 11:21:07;;;;;;;10.15;1.48;;;;;;;17.91;28.16;92852.06;5063279;28;20029;-82
2023/12/02 11:23:41;;;;;;;4.40;1.40;;;;;;;17.88;28.67;92844.72;5064829;28;20021;-84
2023/12/02 11:26:15;;;;;;;7.65;1.17;;;;;;;17.86;28.34;92827.41;5064410;28;20043;-83
2023/12/02 11:28:50;;;;;;;7.30;1.50;;;;;;;17.86;28.83;92830.09;5064522;28;20044;-82
2023/12/02 11:31:36;;;;;;;10.32;1.35;;;;;;;17.86;27.98;92830.88;5064403;28;20079;-82
2023/12/02 11:34:04;;;;;;;7.97;2.55;;;;;;;17.92;28.12;92833.97;5064264;28;20021;-83